EST,Max TemperatureF,Mean TemperatureF,Min TemperatureF,Max Dew PointF,MeanDew PointF,Min DewpointF,Max Humidity, Mean Humidity, Min Humidity, Max Sea Level PressureIn, Mean Sea Level PressureIn, Min Sea Level PressureIn, Max VisibilityMiles, Mean VisibilityMiles, Min VisibilityMiles, Max Wind SpeedMPH, Mean Wind SpeedMPH, Max Gust SpeedMPH,PrecipitationIn, CloudCover, Events, WindDirDegrees
2013-2-1,21,18,14,14,9,5,86,72,58,30.27,30.15,29.88,10,9,2,23,16,28,0.00,7,Snow,254
2013-2-2,24,20,14,21,15,9,93,83,68,30.22,30.03,29.93,10,6,0,12,9,18,0.00,8,Snow,238
2013-2-3,24,14,3,19,10,1,100,81,68,30.01,29.92,29.84,10,9,4,18,5,23,0.00,6,Snow,272
2013-2-4,24,20,17,21,19,14,100,91,80,30.01,29.93,29.85,10,4,0,5,1,,0.00,8,Snow,168
2013-2-5,28,24,19,28,20,18,100,87,69,29.93,29.88,29.80,10,8,0,10,3,,0.00,7,Snow,217
2013-2-6,30,19,8,28,17,7,100,73,55,30.29,30.20,29.94,10,9,0,14,6,18,0.00,2,Fog,223
2013-2-7,37,32,28,30,26,21,93,78,65,30.26,30.11,29.85,10,9,7,14,5,20,0.00,4,,94
2013-2-8,33,26,19,34,24,16,100,85,69,30.32,30.05,29.73,10,8,0,15,8,22,0.00,7,Snow,336
2013-2-9,30,21,12,25,19,10,100,85,69,30.43,30.36,30.28,10,10,10,8,3,,0.00,1,,118
2013-2-10,44,34,24,39,27,21,93,78,65,30.27,30.04,29.68,10,10,5,18,6,18,0.00,5,Rain,118
2013-2-11,46,40,33,43,32,27,93,76,61,29.87,29.71,29.57,10,10,10,37,18,46,0.00,8,,235
2013-2-12,35,32,30,28,26,25,86,74,65,30.05,29.96,29.90,10,10,10,22,13,29,0.00,8,,268
2013-2-13,37,32,28,28,25,21,93,79,65,29.91,29.81,29.73,10,9,5,10,5,,0.00,4,,229
2013-2-14,42,35,28,37,31,27,93,83,70,29.85,29.76,29.69,10,7,3,20,9,32,0.00,6,Rain,210
2013-2-15,35,30,24,30,21,16,87,67,52,30.11,30.01,29.85,10,10,10,15,11,22,0.00,7,,299
2013-2-16,28,22,17,23,17,10,93,78,54,30.09,30.02,29.96,10,9,0,15,6,20,0.00,5,Snow,279
2013-2-17,26,19,12,14,10,7,93,69,43,30.19,30.13,30.03,10,10,7,17,8,21,0.00,2,Snow,311
2013-2-18,46,32,17,36,23,12,80,64,45,30.19,29.95,29.61,10,10,10,18,9,25,0.00,3,Rain,161
2013-2-19,46,32,19,43,25,12,93,79,59,29.94,29.67,29.44,10,8,1,32,19,39,0.00,8,Rain-Snow,236
2013-2-20,24,22,19,18,12,9,86,66,54,30.22,30.09,29.94,10,9,2,22,16,29,0.00,7,Snow,283
2013-2-21,26,24,23,19,17,16,80,73,64,30.35,30.30,30.24,10,10,5,12,7,17,0.00,7,Snow,65
2013-2-22,37,30,24,36,28,19,100,91,74,30.24,29.98,29.87,10,5,0,21,11,29,0.00,8,Fog-Snow,129
2013-2-23,35,32,28,34,24,21,93,72,60,29.92,29.90,29.88,10,10,7,18,10,24,0.00,7,,245
2013-2-24,37,30,23,28,25,19,93,78,65,30.13,30.02,29.89,10,10,7,16,8,21,0.00,6,,260
2013-2-25,39,30,21,28,25,21,100,80,49,30.21,30.15,30.07,10,8,3,10,2,16,0.00,0,,98
2013-2-26,35,32,30,36,30,25,100,86,70,30.09,29.76,29.45,10,6,0,26,12,36,0.00,4,Rain-Snow,70
2013-2-27,37,35,33,37,35,34,100,98,87,29.58,29.51,29.41,10,5,1,17,10,24,0.00,8,Rain-Snow,201
2013-2-28,39,36,33,34,32,28,100,88,75,29.93,29.71,29.54,10,8,1,14,7,21,0.00,8,Rain-Snow,325